sensor_id;sensor_type;location;lat;lon;timestamp;P1;durP1;ratioP1;P2;durP2;ratioP2
14474;SDS011;7323;50.848;4.334;2023-09-18T00:00:56;6.70;;;5.93;;
14474;SDS011;7323;50.848;4.334;2023-09-18T00:03:22;7.47;;;5.57;;
14474;SDS011;7323;50.848;4.334;2023-09-18T00:05:51;7.80;;;5.60;;
14474;SDS011;7323;50.848;4.334;2023-09-18T00:08:18;7.77;;;5.73;;
14474;SDS011;7323;50.848;4.334;2023-09-18T00:10:48;8.47;;;5.80;;
14474;SDS011;7323;50.848;4.334;2023-09-18T00:13:16;8.50;;;5.23;;
14474;SDS011;7323;50.848;4.334;2023-09-18T00:15:42;8.70;;;5.87;;
14474;SDS011;7323;50.848;4.334;2023-09-18T00:18:09;7.07;;;5.33;;
14474;SDS011;7323;50.848;4.334;2023-09-18T00:20:35;6.83;;;5.50;;
14474;SDS011;7323;50.848;4.334;2023-09-18T00:23:01;7.03;;;5.27;;
14474;SDS011;7323;50.848;4.334;2023-09-18T00:25:27;7.67;;;5.80;;
14474;SDS011;7323;50.848;4.334;2023-09-18T00:27:53;8.53;;;5.80;;
14474;SDS011;7323;50.848;4.334;2023-09-18T00:30:19;7.77;;;6.20;;
14474;SDS011;7323;50.848;4.334;2023-09-18T00:32:45;8.90;;;6.17;;
14474;SDS011;7323;50.848;4.334;2023-09-18T00:35:12;6.57;;;5.80;;
14474;SDS011;7323;50.848;4.334;2023-09-18T00:37:38;10.30;;;5.97;;
14474;SDS011;7323;50.848;4.334;2023-09-18T00:40:05;9.47;;;5.87;;
14474;SDS011;7323;50.848;4.334;2023-09-18T00:42:34;7.50;;;5.97;;
14474;SDS011;7323;50.848;4.334;2023-09-18T00:45:00;9.93;;;6.80;;
14474;SDS011;7323;50.848;4.334;2023-09-18T00:47:25;8.37;;;6.50;;
14474;SDS011;7323;50.848;4.334;2023-09-18T00:49:51;12.07;;;6.63;;
14474;SDS011;7323;50.848;4.334;2023-09-18T00:52:18;8.37;;;5.83;;
14474;SDS011;7323;50.848;4.334;2023-09-18T00:54:45;8.77;;;6.23;;
14474;SDS011;7323;50.848;4.334;2023-09-18T00:57:12;9.07;;;5.97;;
14474;SDS011;7323;50.848;4.334;2023-09-18T00:59:39;8.20;;;5.63;;
14474;SDS011;7323;50.848;4.334;2023-09-18T01:02:05;9.77;;;6.23;;
14474;SDS011;7323;50.848;4.334;2023-09-18T01:04:31;9.77;;;6.13;;
14474;SDS011;7323;50.848;4.334;2023-09-18T01:06:59;8.03;;;6.40;;
14474;SDS011;7323;50.848;4.334;2023-09-18T01:09:29;10.40;;;6.67;;
14474;SDS011;7323;50.848;4.334;2023-09-18T01:17:17;9.47;;;6.40;;
14474;SDS011;7323;50.848;4.334;2023-09-18T01:19:44;11.33;;;7.17;;
14474;SDS011;7323;50.848;4.334;2023-09-18T01:22:12;9.20;;;7.37;;
14474;SDS011;7323;50.848;4.334;2023-09-18T01:24:39;11.33;;;6.93;;
14474;SDS011;7323;50.848;4.334;2023-09-18T01:27:10;8.53;;;6.50;;
14474;SDS011;7323;50.848;4.334;2023-09-18T01:29:38;8.57;;;6.00;;
14474;SDS011;7323;50.848;4.334;2023-09-18T01:32:04;7.13;;;6.03;;
14474;SDS011;7323;50.848;4.334;2023-09-18T01:34:34;8.33;;;6.50;;
14474;SDS011;7323;50.848;4.334;2023-09-18T01:37:03;8.87;;;6.03;;
14474;SDS011;7323;50.848;4.334;2023-09-18T01:39:30;8.57;;;6.27;;
14474;SDS011;7323;50.848;4.334;2023-09-18T01:42:01;6.73;;;5.47;;
14474;SDS011;7323;50.848;4.334;2023-09-18T01:44:31;6.80;;;5.90;;
14474;SDS011;7323;50.848;4.334;2023-09-18T01:47:02;7.80;;;6.37;;
14474;SDS011;7323;50.848;4.334;2023-09-18T01:49:29;7.30;;;6.13;;
14474;SDS011;7323;50.848;4.334;2023-09-18T01:52:05;8.53;;;6.20;;
14474;SDS011;7323;50.848;4.334;2023-09-18T01:54:32;7.30;;;6.20;;
14474;SDS011;7323;50.848;4.334;2023-09-18T01:56:59;9.23;;;6.53;;
14474;SDS011;7323;50.848;4.334;2023-09-18T01:59:25;7.17;;;6.07;;
14474;SDS011;7323;50.848;4.334;2023-09-18T02:01:51;9.70;;;6.50;;
14474;SDS011;7323;50.848;4.334;2023-09-18T02:04:18;6.83;;;6.03;;
14474;SDS011;7323;50.848;4.334;2023-09-18T02:06:46;8.23;;;5.60;;
14474;SDS011;7323;50.848;4.334;2023-09-18T02:09:13;6.73;;;5.47;;
14474;SDS011;7323;50.848;4.334;2023-09-18T02:11:40;8.20;;;5.57;;
14474;SDS011;7323;50.848;4.334;2023-09-18T02:14:08;6.37;;;4.97;;
14474;SDS011;7323;50.848;4.334;2023-09-18T02:16:35;6.43;;;5.80;;
14474;SDS011;7323;50.848;4.334;2023-09-18T02:19:08;8.73;;;5.50;;
14474;SDS011;7323;50.848;4.334;2023-09-18T02:21:34;6.57;;;5.50;;
14474;SDS011;7323;50.848;4.334;2023-09-18T02:24:02;9.40;;;5.60;;
14474;SDS011;7323;50.848;4.334;2023-09-18T02:26:28;8.63;;;6.10;;
14474;SDS011;7323;50.848;4.334;2023-09-18T02:28:55;9.50;;;6.13;;
14474;SDS011;7323;50.848;4.334;2023-09-18T02:31:24;10.10;;;5.93;;
14474;SDS011;7323;50.848;4.334;2023-09-18T02:33:49;8.27;;;5.60;;
14474;SDS011;7323;50.848;4.334;2023-09-18T02:36:15;8.37;;;5.80;;
14474;SDS011;7323;50.848;4.334;2023-09-18T02:38:41;7.57;;;5.20;;
14474;SDS011;7323;50.848;4.334;2023-09-18T02:41:08;5.73;;;4.97;;
14474;SDS011;7323;50.848;4.334;2023-09-18T02:43:35;6.83;;;5.00;;
14474;SDS011;7323;50.848;4.334;2023-09-18T02:46:04;5.20;;;4.50;;
14474;SDS011;7323;50.848;4.334;2023-09-18T02:48:30;7.13;;;4.77;;
14474;SDS011;7323;50.848;4.334;2023-09-18T02:50:56;7.17;;;4.30;;
14474;SDS011;7323;50.848;4.334;2023-09-18T02:53:29;6.80;;;4.57;;
14474;SDS011;7323;50.848;4.334;2023-09-18T02:58:24;5.57;;;4.03;;
14474;SDS011;7323;50.848;4.334;2023-09-18T03:00:56;5.20;;;4.30;;
14474;SDS011;7323;50.848;4.334;2023-09-18T03:03:27;5.27;;;3.77;;
14474;SDS011;7323;50.848;4.334;2023-09-18T03:05:59;5.17;;;3.77;;
14474;SDS011;7323;50.848;4.334;2023-09-18T03:08:30;6.33;;;3.97;;
14474;SDS011;7323;50.848;4.334;2023-09-18T03:10:56;7.27;;;4.00;;
14474;SDS011;7323;50.848;4.334;2023-09-18T03:13:22;5.93;;;3.43;;
14474;SDS011;7323;50.848;4.334;2023-09-18T03:15:48;6.23;;;3.83;;
14474;SDS011;7323;50.848;4.334;2023-09-18T03:18:20;4.93;;;3.50;;
14474;SDS011;7323;50.848;4.334;2023-09-18T03:20:48;5.47;;;3.47;;
14474;SDS011;7323;50.848;4.334;2023-09-18T03:23:13;5.63;;;3.80;;
14474;SDS011;7323;50.848;4.334;2023-09-18T03:25:39;5.67;;;3.87;;
14474;SDS011;7323;50.848;4.334;2023-09-18T03:28:05;5.17;;;3.43;;
14474;SDS011;7323;50.848;4.334;2023-09-18T03:30:31;4.87;;;3.40;;
14474;SDS011;7323;50.848;4.334;2023-09-18T03:32:57;4.70;;;3.13;;
14474;SDS011;7323;50.848;4.334;2023-09-18T03:35:23;4.67;;;2.70;;
14474;SDS011;7323;50.848;4.334;2023-09-18T03:37:49;3.73;;;2.63;;
14474;SDS011;7323;50.848;4.334;2023-09-18T03:40:21;5.13;;;2.53;;
14474;SDS011;7323;50.848;4.334;2023-09-18T03:42:47;4.03;;;2.10;;
14474;SDS011;7323;50.848;4.334;2023-09-18T03:45:14;5.17;;;2.63;;
14474;SDS011;7323;50.848;4.334;2023-09-18T03:47:41;5.27;;;2.77;;
14474;SDS011;7323;50.848;4.334;2023-09-18T03:50:07;4.53;;;2.87;;
14474;SDS011;7323;50.848;4.334;2023-09-18T03:52:34;7.67;;;4.00;;
14474;SDS011;7323;50.848;4.334;2023-09-18T03:55:02;7.33;;;3.30;;
14474;SDS011;7323;50.848;4.334;2023-09-18T03:57:27;6.83;;;3.77;;
14474;SDS011;7323;50.848;4.334;2023-09-18T03:59:53;6.63;;;3.80;;
14474;SDS011;7323;50.848;4.334;2023-09-18T04:02:21;7.57;;;4.23;;
14474;SDS011;7323;50.848;4.334;2023-09-18T04:04:48;7.07;;;3.90;;
14474;SDS011;7323;50.848;4.334;2023-09-18T04:07:14;8.50;;;4.07;;
14474;SDS011;7323;50.848;4.334;2023-09-18T04:09:41;7.47;;;3.83;;
14474;SDS011;7323;50.848;4.334;2023-09-18T04:12:08;9.93;;;4.17;;
14474;SDS011;7323;50.848;4.334;2023-09-18T04:14:34;6.17;;;3.90;;
14474;SDS011;7323;50.848;4.334;2023-09-18T04:17:01;5.63;;;3.67;;
14474;SDS011;7323;50.848;4.334;2023-09-18T04:19:27;5.97;;;3.43;;
14474;SDS011;7323;50.848;4.334;2023-09-18T04:21:53;7.70;;;3.20;;
14474;SDS011;7323;50.848;4.334;2023-09-18T04:24:18;6.93;;;3.60;;
14474;SDS011;7323;50.848;4.334;2023-09-18T04:26:44;5.20;;;2.93;;
14474;SDS011;7323;50.848;4.334;2023-09-18T04:29:10;4.80;;;3.10;;
14474;SDS011;7323;50.848;4.334;2023-09-18T04:31:36;5.67;;;2.77;;
14474;SDS011;7323;50.848;4.334;2023-09-18T04:34:03;6.53;;;2.20;;
14474;SDS011;7323;50.848;4.334;2023-09-18T04:36:29;4.27;;;2.37;;
14474;SDS011;7323;50.848;4.334;2023-09-18T04:38:55;5.00;;;1.70;;
14474;SDS011;7323;50.848;4.334;2023-09-18T04:41:21;3.63;;;1.90;;
14474;SDS011;7323;50.848;4.334;2023-09-18T04:43:47;7.80;;;2.10;;
14474;SDS011;7323;50.848;4.334;2023-09-18T04:46:13;3.17;;;1.77;;
14474;SDS011;7323;50.848;4.334;2023-09-18T04:48:39;3.63;;;1.70;;
14474;SDS011;7323;50.848;4.334;2023-09-18T04:51:04;3.50;;;1.70;;
14474;SDS011;7323;50.848;4.334;2023-09-18T04:53:30;2.90;;;1.67;;
14474;SDS011;7323;50.848;4.334;2023-09-18T04:55:57;3.70;;;1.83;;
14474;SDS011;7323;50.848;4.334;2023-09-18T04:58:23;4.63;;;1.90;;
14474;SDS011;7323;50.848;4.334;2023-09-18T05:00:55;6.60;;;2.10;;
14474;SDS011;7323;50.848;4.334;2023-09-18T05:03:22;4.97;;;1.93;;
14474;SDS011;7323;50.848;4.334;2023-09-18T05:05:48;3.23;;;1.70;;
14474;SDS011;7323;50.848;4.334;2023-09-18T05:08:14;3.50;;;1.80;;
14474;SDS011;7323;50.848;4.334;2023-09-18T05:10:40;4.83;;;1.70;;
14474;SDS011;7323;50.848;4.334;2023-09-18T05:13:06;2.97;;;1.90;;
14474;SDS011;7323;50.848;4.334;2023-09-18T05:15:32;4.40;;;1.97;;
14474;SDS011;7323;50.848;4.334;2023-09-18T05:17:59;4.37;;;1.90;;
14474;SDS011;7323;50.848;4.334;2023-09-18T05:20:25;3.20;;;2.00;;
14474;SDS011;7323;50.848;4.334;2023-09-18T05:22:56;7.20;;;2.00;;
14474;SDS011;7323;50.848;4.334;2023-09-18T05:25:22;2.63;;;1.97;;
14474;SDS011;7323;50.848;4.334;2023-09-18T05:27:53;4.33;;;2.10;;
14474;SDS011;7323;50.848;4.334;2023-09-18T05:30:27;3.27;;;1.87;;
14474;SDS011;7323;50.848;4.334;2023-09-18T05:32:56;4.60;;;2.00;;
14474;SDS011;7323;50.848;4.334;2023-09-18T05:35:22;6.40;;;1.93;;
14474;SDS011;7323;50.848;4.334;2023-09-18T05:37:49;5.40;;;2.30;;
14474;SDS011;7323;50.848;4.334;2023-09-18T05:40:16;6.07;;;2.13;;
14474;SDS011;7323;50.848;4.334;2023-09-18T05:42:43;4.27;;;2.10;;
14474;SDS011;7323;50.848;4.334;2023-09-18T05:45:12;5.60;;;2.07;;
14474;SDS011;7323;50.848;4.334;2023-09-18T05:47:39;5.80;;;2.03;;
14474;SDS011;7323;50.848;4.334;2023-09-18T05:50:08;3.37;;;2.00;;
14474;SDS011;7323;50.848;4.334;2023-09-18T05:52:35;4.37;;;2.20;;
14474;SDS011;7323;50.848;4.334;2023-09-18T05:55:03;5.87;;;2.53;;
14474;SDS011;7323;50.848;4.334;2023-09-18T05:57:29;7.77;;;2.40;;
14474;SDS011;7323;50.848;4.334;2023-09-18T05:59:55;4.53;;;2.20;;
14474;SDS011;7323;50.848;4.334;2023-09-18T06:02:21;4.27;;;2.33;;
14474;SDS011;7323;50.848;4.334;2023-09-18T06:04:48;6.77;;;2.23;;
14474;SDS011;7323;50.848;4.334;2023-09-18T06:07:13;5.17;;;2.20;;
14474;SDS011;7323;50.848;4.334;2023-09-18T06:09:40;4.83;;;2.60;;
14474;SDS011;7323;50.848;4.334;2023-09-18T06:12:06;6.77;;;2.37;;
14474;SDS011;7323;50.848;4.334;2023-09-18T06:14:32;7.20;;;2.60;;
14474;SDS011;7323;50.848;4.334;2023-09-18T06:19:32;4.43;;;2.60;;
14474;SDS011;7323;50.848;4.334;2023-09-18T06:21:59;5.30;;;2.50;;
14474;SDS011;7323;50.848;4.334;2023-09-18T06:24:24;6.70;;;2.30;;
14474;SDS011;7323;50.848;4.334;2023-09-18T06:26:50;5.83;;;2.73;;
14474;SDS011;7323;50.848;4.334;2023-09-18T06:29:16;5.10;;;2.37;;
14474;SDS011;7323;50.848;4.334;2023-09-18T06:31:42;4.70;;;2.33;;
14474;SDS011;7323;50.848;4.334;2023-09-18T06:34:08;8.20;;;2.50;;
14474;SDS011;7323;50.848;4.334;2023-09-18T06:36:34;6.73;;;2.57;;
14474;SDS011;7323;50.848;4.334;2023-09-18T06:38:59;6.07;;;2.50;;
14474;SDS011;7323;50.848;4.334;2023-09-18T06:41:31;6.07;;;2.83;;
14474;SDS011;7323;50.848;4.334;2023-09-18T06:43:57;5.23;;;2.53;;
14474;SDS011;7323;50.848;4.334;2023-09-18T06:46:23;6.27;;;2.70;;
14474;SDS011;7323;50.848;4.334;2023-09-18T06:48:55;5.73;;;3.03;;
14474;SDS011;7323;50.848;4.334;2023-09-18T06:51:22;6.10;;;2.83;;
14474;SDS011;7323;50.848;4.334;2023-09-18T06:53:48;5.37;;;2.80;;
14474;SDS011;7323;50.848;4.334;2023-09-18T06:56:15;6.43;;;3.10;;
14474;SDS011;7323;50.848;4.334;2023-09-18T06:58:41;4.20;;;2.73;;
14474;SDS011;7323;50.848;4.334;2023-09-18T07:01:09;4.97;;;2.70;;
14474;SDS011;7323;50.848;4.334;2023-09-18T07:03:35;5.50;;;2.90;;
14474;SDS011;7323;50.848;4.334;2023-09-18T07:06:02;6.37;;;2.80;;
14474;SDS011;7323;50.848;4.334;2023-09-18T07:08:30;6.97;;;3.00;;
14474;SDS011;7323;50.848;4.334;2023-09-18T07:10:56;4.90;;;2.80;;
14474;SDS011;7323;50.848;4.334;2023-09-18T07:13:22;6.43;;;3.23;;
14474;SDS011;7323;50.848;4.334;2023-09-18T07:15:49;5.60;;;3.17;;
14474;SDS011;7323;50.848;4.334;2023-09-18T07:18:15;5.77;;;3.20;;
14474;SDS011;7323;50.848;4.334;2023-09-18T07:20:41;6.07;;;2.83;;
14474;SDS011;7323;50.848;4.334;2023-09-18T07:23:09;5.90;;;3.10;;
14474;SDS011;7323;50.848;4.334;2023-09-18T07:25:35;6.37;;;2.93;;
14474;SDS011;7323;50.848;4.334;2023-09-18T07:28:04;8.43;;;3.07;;
14474;SDS011;7323;50.848;4.334;2023-09-18T07:30:33;8.10;;;3.33;;
14474;SDS011;7323;50.848;4.334;2023-09-18T07:33:02;6.20;;;3.47;;
14474;SDS011;7323;50.848;4.334;2023-09-18T07:35:29;5.70;;;2.90;;
14474;SDS011;7323;50.848;4.334;2023-09-18T07:37:57;5.73;;;2.97;;
14474;SDS011;7323;50.848;4.334;2023-09-18T07:40:24;6.40;;;2.67;;
14474;SDS011;7323;50.848;4.334;2023-09-18T07:42:50;10.07;;;3.23;;
14474;SDS011;7323;50.848;4.334;2023-09-18T07:45:16;7.10;;;2.90;;
14474;SDS011;7323;50.848;4.334;2023-09-18T07:47:43;6.93;;;2.80;;
14474;SDS011;7323;50.848;4.334;2023-09-18T07:50:13;8.03;;;2.80;;
14474;SDS011;7323;50.848;4.334;2023-09-18T07:52:38;5.73;;;2.93;;
14474;SDS011;7323;50.848;4.334;2023-09-18T07:55:05;5.77;;;2.30;;
14474;SDS011;7323;50.848;4.334;2023-09-18T07:57:31;7.33;;;3.20;;
14474;SDS011;7323;50.848;4.334;2023-09-18T08:00:00;6.97;;;2.80;;
14474;SDS011;7323;50.848;4.334;2023-09-18T08:02:36;5.50;;;2.63;;
14474;SDS011;7323;50.848;4.334;2023-09-18T08:05:02;8.10;;;3.13;;
14474;SDS011;7323;50.848;4.334;2023-09-18T08:07:33;9.07;;;3.00;;
14474;SDS011;7323;50.848;4.334;2023-09-18T08:10:00;7.23;;;3.20;;
14474;SDS011;7323;50.848;4.334;2023-09-18T08:12:26;6.77;;;2.97;;
14474;SDS011;7323;50.848;4.334;2023-09-18T08:14:51;6.80;;;2.97;;
14474;SDS011;7323;50.848;4.334;2023-09-18T08:17:19;9.17;;;3.50;;
14474;SDS011;7323;50.848;4.334;2023-09-18T08:19:45;6.47;;;3.47;;
14474;SDS011;7323;50.848;4.334;2023-09-18T08:22:10;12.00;;;3.97;;
14474;SDS011;7323;50.848;4.334;2023-09-18T08:24:40;6.43;;;4.27;;
14474;SDS011;7323;50.848;4.334;2023-09-18T08:27:06;7.90;;;3.97;;
14474;SDS011;7323;50.848;4.334;2023-09-18T08:29:32;8.30;;;4.43;;
14474;SDS011;7323;50.848;4.334;2023-09-18T08:31:59;6.93;;;3.90;;
14474;SDS011;7323;50.848;4.334;2023-09-18T08:34:25;6.83;;;4.43;;
14474;SDS011;7323;50.848;4.334;2023-09-18T08:36:51;7.50;;;5.00;;
14474;SDS011;7323;50.848;4.334;2023-09-18T08:39:17;12.17;;;5.40;;
14474;SDS011;7323;50.848;4.334;2023-09-18T08:41:43;7.40;;;5.23;;
14474;SDS011;7323;50.848;4.334;2023-09-18T08:44:16;9.80;;;5.50;;
14474;SDS011;7323;50.848;4.334;2023-09-18T08:46:43;7.77;;;4.73;;
14474;SDS011;7323;50.848;4.334;2023-09-18T08:49:09;6.63;;;4.43;;
14474;SDS011;7323;50.848;4.334;2023-09-18T08:51:36;6.70;;;4.07;;
14474;SDS011;7323;50.848;4.334;2023-09-18T08:54:03;8.50;;;4.40;;
14474;SDS011;7323;50.848;4.334;2023-09-18T08:56:31;9.83;;;4.50;;
14474;SDS011;7323;50.848;4.334;2023-09-18T08:58:58;8.70;;;4.23;;
14474;SDS011;7323;50.848;4.334;2023-09-18T09:01:25;8.43;;;3.67;;
14474;SDS011;7323;50.848;4.334;2023-09-18T09:03:50;6.53;;;3.63;;
14474;SDS011;7323;50.848;4.334;2023-09-18T09:06:18;5.33;;;3.63;;
14474;SDS011;7323;50.848;4.334;2023-09-18T09:08:44;4.80;;;3.13;;
14474;SDS011;7323;50.848;4.334;2023-09-18T09:11:11;7.23;;;3.53;;
14474;SDS011;7323;50.848;4.334;2023-09-18T09:13:36;7.73;;;3.37;;
14474;SDS011;7323;50.848;4.334;2023-09-18T09:16:02;8.93;;;3.67;;
14474;SDS011;7323;50.848;4.334;2023-09-18T09:18:30;6.33;;;3.67;;
14474;SDS011;7323;50.848;4.334;2023-09-18T09:20:58;8.50;;;3.50;;
14474;SDS011;7323;50.848;4.334;2023-09-18T09:23:26;6.73;;;3.43;;
14474;SDS011;7323;50.848;4.334;2023-09-18T09:25:53;6.47;;;3.73;;
14474;SDS011;7323;50.848;4.334;2023-09-18T09:28:29;5.37;;;3.50;;
14474;SDS011;7323;50.848;4.334;2023-09-18T09:31:04;7.60;;;3.60;;
14474;SDS011;7323;50.848;4.334;2023-09-18T09:33:31;5.80;;;3.60;;
14474;SDS011;7323;50.848;4.334;2023-09-18T09:35:57;9.27;;;3.33;;
14474;SDS011;7323;50.848;4.334;2023-09-18T09:38:30;9.13;;;3.77;;
14474;SDS011;7323;50.848;4.334;2023-09-18T09:40:59;6.00;;;3.50;;
14474;SDS011;7323;50.848;4.334;2023-09-18T09:43:27;8.83;;;4.10;;
14474;SDS011;7323;50.848;4.334;2023-09-18T09:45:59;11.40;;;4.17;;
14474;SDS011;7323;50.848;4.334;2023-09-18T09:48:27;8.03;;;4.00;;
14474;SDS011;7323;50.848;4.334;2023-09-18T09:50:57;7.23;;;4.30;;
14474;SDS011;7323;50.848;4.334;2023-09-18T09:53:43;8.10;;;4.20;;
14474;SDS011;7323;50.848;4.334;2023-09-18T09:56:12;12.87;;;4.10;;
14474;SDS011;7323;50.848;4.334;2023-09-18T09:58:38;10.17;;;4.30;;
14474;SDS011;7323;50.848;4.334;2023-09-18T10:01:09;7.03;;;4.27;;
14474;SDS011;7323;50.848;4.334;2023-09-18T10:03:45;5.13;;;3.80;;
14474;SDS011;7323;50.848;4.334;2023-09-18T10:06:18;7.47;;;4.17;;
14474;SDS011;7323;50.848;4.334;2023-09-18T10:08:45;9.87;;;4.13;;
14474;SDS011;7323;50.848;4.334;2023-09-18T10:11:13;7.70;;;4.10;;
14474;SDS011;7323;50.848;4.334;2023-09-18T10:13:50;8.07;;;3.77;;
14474;SDS011;7323;50.848;4.334;2023-09-18T10:16:21;7.53;;;4.40;;
14474;SDS011;7323;50.848;4.334;2023-09-18T10:18:56;5.13;;;3.50;;
14474;SDS011;7323;50.848;4.334;2023-09-18T10:24:11;6.43;;;3.87;;
14474;SDS011;7323;50.848;4.334;2023-09-18T10:26:57;6.57;;;4.23;;
14474;SDS011;7323;50.848;4.334;2023-09-18T10:29:27;6.57;;;3.80;;
14474;SDS011;7323;50.848;4.334;2023-09-18T10:31:55;7.27;;;4.27;;
14474;SDS011;7323;50.848;4.334;2023-09-18T10:34:22;7.10;;;3.90;;
14474;SDS011;7323;50.848;4.334;2023-09-18T10:36:50;6.03;;;3.73;;
14474;SDS011;7323;50.848;4.334;2023-09-18T10:39:16;6.43;;;4.23;;
14474;SDS011;7323;50.848;4.334;2023-09-18T10:41:52;8.90;;;4.33;;
14474;SDS011;7323;50.848;4.334;2023-09-18T10:46:49;7.23;;;3.70;;
14474;SDS011;7323;50.848;4.334;2023-09-18T10:49:19;8.20;;;4.10;;
14474;SDS011;7323;50.848;4.334;2023-09-18T10:51:45;9.27;;;4.33;;
14474;SDS011;7323;50.848;4.334;2023-09-18T10:54:16;7.60;;;3.90;;
14474;SDS011;7323;50.848;4.334;2023-09-18T10:56:46;8.20;;;3.50;;
14474;SDS011;7323;50.848;4.334;2023-09-18T10:59:13;5.33;;;4.23;;
14474;SDS011;7323;50.848;4.334;2023-09-18T11:01:40;4.40;;;3.30;;
14474;SDS011;7323;50.848;4.334;2023-09-18T11:04:07;7.30;;;3.53;;
14474;SDS011;7323;50.848;4.334;2023-09-18T11:09:22;8.93;;;3.50;;
14474;SDS011;7323;50.848;4.334;2023-09-18T11:11:52;4.67;;;3.07;;
14474;SDS011;7323;50.848;4.334;2023-09-18T11:14:23;5.07;;;3.00;;
14474;SDS011;7323;50.848;4.334;2023-09-18T11:17:06;7.03;;;3.20;;
14474;SDS011;7323;50.848;4.334;2023-09-18T11:20:01;6.27;;;3.00;;
14474;SDS011;7323;50.848;4.334;2023-09-18T11:25:40;7.47;;;2.93;;
14474;SDS011;7323;50.848;4.334;2023-09-18T11:28:22;4.73;;;2.90;;
14474;SDS011;7323;50.848;4.334;2023-09-18T11:30:50;5.93;;;3.40;;
14474;SDS011;7323;50.848;4.334;2023-09-18T11:33:38;6.60;;;3.17;;
14474;SDS011;7323;50.848;4.334;2023-09-18T11:36:06;7.30;;;3.37;;
14474;SDS011;7323;50.848;4.334;2023-09-18T11:39:01;7.20;;;3.23;;
14474;SDS011;7323;50.848;4.334;2023-09-18T11:41:33;7.60;;;3.40;;
14474;SDS011;7323;50.848;4.334;2023-09-18T11:46:49;5.43;;;3.00;;
14474;SDS011;7323;50.848;4.334;2023-09-18T11:49:20;6.80;;;2.90;;
14474;SDS011;7323;50.848;4.334;2023-09-18T11:51:47;6.17;;;3.23;;
14474;SDS011;7323;50.848;4.334;2023-09-18T11:54:14;5.27;;;3.13;;
14474;SDS011;7323;50.848;4.334;2023-09-18T11:56:42;9.23;;;3.30;;
14474;SDS011;7323;50.848;4.334;2023-09-18T11:59:08;6.33;;;3.60;;
14474;SDS011;7323;50.848;4.334;2023-09-18T12:01:35;7.03;;;2.90;;
14474;SDS011;7323;50.848;4.334;2023-09-18T12:04:07;8.07;;;3.00;;
14474;SDS011;7323;50.848;4.334;2023-09-18T12:06:34;6.07;;;3.00;;
14474;SDS011;7323;50.848;4.334;2023-09-18T12:09:00;5.57;;;2.73;;
14474;SDS011;7323;50.848;4.334;2023-09-18T12:11:28;5.17;;;2.80;;
14474;SDS011;7323;50.848;4.334;2023-09-18T12:13:55;4.60;;;2.67;;
14474;SDS011;7323;50.848;4.334;2023-09-18T12:16:21;4.93;;;2.80;;
14474;SDS011;7323;50.848;4.334;2023-09-18T12:18:49;4.90;;;2.33;;
14474;SDS011;7323;50.848;4.334;2023-09-18T12:21:16;6.77;;;3.00;;
14474;SDS011;7323;50.848;4.334;2023-09-18T12:23:47;4.73;;;2.83;;
14474;SDS011;7323;50.848;4.334;2023-09-18T12:26:14;4.20;;;2.23;;
14474;SDS011;7323;50.848;4.334;2023-09-18T12:28:44;5.67;;;2.67;;
14474;SDS011;7323;50.848;4.334;2023-09-18T12:31:13;4.77;;;2.63;;
14474;SDS011;7323;50.848;4.334;2023-09-18T12:33:40;6.83;;;2.30;;
14474;SDS011;7323;50.848;4.334;2023-09-18T12:36:09;3.17;;;2.33;;
14474;SDS011;7323;50.848;4.334;2023-09-18T12:38:36;4.93;;;2.30;;
14474;SDS011;7323;50.848;4.334;2023-09-18T12:41:03;6.80;;;2.70;;
14474;SDS011;7323;50.848;4.334;2023-09-18T12:43:41;5.13;;;2.23;;
14474;SDS011;7323;50.848;4.334;2023-09-18T12:46:09;5.93;;;2.40;;
14474;SDS011;7323;50.848;4.334;2023-09-18T12:48:39;8.57;;;2.20;;
14474;SDS011;7323;50.848;4.334;2023-09-18T12:51:10;5.57;;;2.30;;
14474;SDS011;7323;50.848;4.334;2023-09-18T12:56:11;6.30;;;2.53;;
14474;SDS011;7323;50.848;4.334;2023-09-18T12:58:41;6.20;;;2.30;;
14474;SDS011;7323;50.848;4.334;2023-09-18T13:01:09;8.87;;;2.73;;
14474;SDS011;7323;50.848;4.334;2023-09-18T13:03:45;8.27;;;2.47;;
14474;SDS011;7323;50.848;4.334;2023-09-18T13:06:18;5.30;;;2.10;;
14474;SDS011;7323;50.848;4.334;2023-09-18T13:08:46;5.20;;;2.17;;
14474;SDS011;7323;50.848;4.334;2023-09-18T13:11:22;5.90;;;2.13;;
14474;SDS011;7323;50.848;4.334;2023-09-18T13:13:56;7.40;;;2.00;;
14474;SDS011;7323;50.848;4.334;2023-09-18T13:16:27;7.93;;;2.53;;
14474;SDS011;7323;50.848;4.334;2023-09-18T13:18:54;7.60;;;2.50;;
14474;SDS011;7323;50.848;4.334;2023-09-18T13:21:22;5.03;;;2.43;;
14474;SDS011;7323;50.848;4.334;2023-09-18T13:26:21;5.97;;;2.10;;
14474;SDS011;7323;50.848;4.334;2023-09-18T13:28:47;4.63;;;2.17;;
14474;SDS011;7323;50.848;4.334;2023-09-18T13:31:15;6.00;;;2.20;;
14474;SDS011;7323;50.848;4.334;2023-09-18T13:33:44;5.37;;;2.10;;
14474;SDS011;7323;50.848;4.334;2023-09-18T13:36:12;5.03;;;2.27;;
14474;SDS011;7323;50.848;4.334;2023-09-18T13:38:37;3.27;;;2.00;;
14474;SDS011;7323;50.848;4.334;2023-09-18T13:46:00;3.70;;;2.43;;
14474;SDS011;7323;50.848;4.334;2023-09-18T13:48:29;4.53;;;2.20;;
14474;SDS011;7323;50.848;4.334;2023-09-18T13:50:55;5.10;;;2.27;;
14474;SDS011;7323;50.848;4.334;2023-09-18T13:53:21;3.47;;;1.80;;
14474;SDS011;7323;50.848;4.334;2023-09-18T13:55:47;2.87;;;1.97;;
14474;SDS011;7323;50.848;4.334;2023-09-18T13:58:13;6.33;;;2.53;;
14474;SDS011;7323;50.848;4.334;2023-09-18T14:00:38;8.33;;;1.90;;
14474;SDS011;7323;50.848;4.334;2023-09-18T14:03:04;4.80;;;1.90;;
14474;SDS011;7323;50.848;4.334;2023-09-18T14:05:30;5.13;;;2.10;;
14474;SDS011;7323;50.848;4.334;2023-09-18T14:07:59;6.30;;;2.40;;
14474;SDS011;7323;50.848;4.334;2023-09-18T14:10:25;7.97;;;2.50;;
14474;SDS011;7323;50.848;4.334;2023-09-18T14:12:52;5.33;;;1.80;;
14474;SDS011;7323;50.848;4.334;2023-09-18T14:15:17;7.20;;;2.10;;
14474;SDS011;7323;50.848;4.334;2023-09-18T14:17:43;7.10;;;2.10;;
14474;SDS011;7323;50.848;4.334;2023-09-18T14:20:09;8.30;;;2.43;;
14474;SDS011;7323;50.848;4.334;2023-09-18T14:22:35;7.47;;;2.27;;
14474;SDS011;7323;50.848;4.334;2023-09-18T14:25:02;6.23;;;2.10;;
14474;SDS011;7323;50.848;4.334;2023-09-18T14:27:30;8.83;;;2.47;;
14474;SDS011;7323;50.848;4.334;2023-09-18T14:30:00;6.13;;;2.53;;
14474;SDS011;7323;50.848;4.334;2023-09-18T14:32:30;5.70;;;2.27;;
14474;SDS011;7323;50.848;4.334;2023-09-18T14:34:56;3.73;;;2.30;;
14474;SDS011;7323;50.848;4.334;2023-09-18T14:37:26;8.13;;;3.43;;
14474;SDS011;7323;50.848;4.334;2023-09-18T14:39:53;8.63;;;2.57;;
14474;SDS011;7323;50.848;4.334;2023-09-18T14:42:19;8.47;;;2.73;;
14474;SDS011;7323;50.848;4.334;2023-09-18T14:44:44;5.60;;;2.67;;
14474;SDS011;7323;50.848;4.334;2023-09-18T14:47:13;4.83;;;2.90;;
14474;SDS011;7323;50.848;4.334;2023-09-18T14:49:41;6.97;;;3.03;;
14474;SDS011;7323;50.848;4.334;2023-09-18T14:52:11;4.03;;;2.50;;
14474;SDS011;7323;50.848;4.334;2023-09-18T14:54:37;5.33;;;2.40;;
14474;SDS011;7323;50.848;4.334;2023-09-18T14:57:05;4.67;;;2.80;;
14474;SDS011;7323;50.848;4.334;2023-09-18T14:59:31;3.33;;;2.30;;
14474;SDS011;7323;50.848;4.334;2023-09-18T15:01:56;5.30;;;2.40;;
14474;SDS011;7323;50.848;4.334;2023-09-18T15:04:22;6.57;;;2.37;;
14474;SDS011;7323;50.848;4.334;2023-09-18T15:06:48;5.03;;;2.93;;
14474;SDS011;7323;50.848;4.334;2023-09-18T15:09:14;4.30;;;2.67;;
14474;SDS011;7323;50.848;4.334;2023-09-18T15:11:40;4.60;;;2.60;;
14474;SDS011;7323;50.848;4.334;2023-09-18T15:14:06;5.07;;;2.57;;
14474;SDS011;7323;50.848;4.334;2023-09-18T15:16:34;4.43;;;2.87;;
14474;SDS011;7323;50.848;4.334;2023-09-18T15:19:00;3.13;;;2.30;;
14474;SDS011;7323;50.848;4.334;2023-09-18T15:21:29;5.13;;;2.40;;
14474;SDS011;7323;50.848;4.334;2023-09-18T15:23:55;3.70;;;2.57;;
14474;SDS011;7323;50.848;4.334;2023-09-18T15:26:22;4.00;;;2.47;;
14474;SDS011;7323;50.848;4.334;2023-09-18T15:28:49;4.80;;;2.50;;
14474;SDS011;7323;50.848;4.334;2023-09-18T15:31:15;5.10;;;2.67;;
14474;SDS011;7323;50.848;4.334;2023-09-18T15:33:40;3.93;;;2.17;;
14474;SDS011;7323;50.848;4.334;2023-09-18T15:36:08;3.33;;;2.47;;
14474;SDS011;7323;50.848;4.334;2023-09-18T15:38:35;5.10;;;2.30;;